Time;durP1;ratioP1;P1;durP2;ratioP2;P2;SDS_P1;SDS_P2;PMS_P1;PMS_P2;Temp;Humidity;BMP_temperature;BMP_pressure;BME280_temperature;BME280_humidity;BME280_pressure;Samples;Min_cycle;Max_cycle;Signal;HPM_P1;HPM_P2
2023/07/30 00:01:55;;;;;;;9.75;5.63;;;17.40;99.90;;;;;;4987712;28;20081;-78
2023/07/30 00:04:21;;;;;;;9.80;5.38;;;17.30;99.90;;;;;;4981205;28;20042;-79
2023/07/30 00:06:47;;;;;;;8.90;5.68;;;17.30;99.90;;;;;;4963829;28;20062;-79
2023/07/30 00:09:13;;;;;;;11.43;5.50;;;17.30;99.90;;;;;;4988156;28;20046;-79
2023/07/30 00:11:39;;;;;;;9.68;5.22;;;17.20;99.90;;;;;;4986088;28;20184;-78
2023/07/30 00:14:04;;;;;;;11.93;5.97;;;17.20;99.90;;;;;;4974719;28;20047;-79
2023/07/30 00:16:30;;;;;;;12.20;5.45;;;17.20;99.90;;;;;;4984137;28;20074;-79
2023/07/30 00:18:56;;;;;;;11.70;4.63;;;17.20;99.90;;;;;;4983028;28;20042;-78
2023/07/30 00:21:22;;;;;;;9.65;5.00;;;17.20;99.90;;;;;;4976191;28;20488;-78
2023/07/30 00:23:48;;;;;;;10.70;4.95;;;17.20;99.90;;;;;;4978990;28;20052;-78
2023/07/30 00:26:14;;;;;;;10.95;4.90;;;17.10;99.90;;;;;;4980230;28;20740;-78
2023/07/30 00:28:39;;;;;;;18.88;5.40;;;17.10;99.90;;;;;;4987631;28;20046;-79
2023/07/30 00:31:05;;;;;;;9.32;5.13;;;17.10;99.90;;;;;;4970225;28;20145;-79
2023/07/30 00:33:31;;;;;;;12.23;5.03;;;17.10;99.90;;;;;;4978709;28;20109;-79
2023/07/30 00:35:56;;;;;;;10.05;5.13;;;17.10;99.90;;;;;;4959262;28;20046;-79
2023/07/30 00:38:22;;;;;;;13.75;5.00;;;17.10;99.90;;;;;;4972033;28;20039;-79
2023/07/30 00:40:48;;;;;;;11.00;5.20;;;17.10;99.90;;;;;;4966768;28;20064;-79
2023/07/30 00:43:13;;;;;;;12.10;4.85;;;17.10;99.90;;;;;;4981190;28;20039;-79
2023/07/30 00:45:42;;;;;;;12.38;4.75;;;17.00;99.90;;;;;;4986037;28;20034;-79
2023/07/30 00:48:13;;;;;;;10.68;4.70;;;17.10;99.90;;;;;;4980808;28;20099;-79
2023/07/30 00:50:40;;;;;;;11.70;4.90;;;17.00;99.90;;;;;;4968378;28;20521;-79
2023/07/30 00:53:08;;;;;;;10.60;4.72;;;17.00;99.90;;;;;;4957611;28;20042;-79
2023/07/30 00:55:35;;;;;;;15.60;5.45;;;17.00;99.90;;;;;;4971058;28;20047;-79
2023/07/30 00:58:02;;;;;;;11.50;4.65;;;16.90;99.90;;;;;;4967780;28;20520;-79
2023/07/30 01:00:29;;;;;;;12.70;4.50;;;16.90;99.90;;;;;;4986257;28;20097;-79
2023/07/30 01:02:55;;;;;;;10.93;4.68;;;16.90;99.90;;;;;;4983101;28;20030;-79
2023/07/30 01:05:21;;;;;;;11.13;4.50;;;16.90;99.90;;;;;;4981458;28;20046;-79
2023/07/30 01:07:47;;;;;;;11.00;4.47;;;16.90;99.90;;;;;;4978234;28;20089;-79
2023/07/30 01:10:13;;;;;;;11.82;4.90;;;16.80;99.90;;;;;;4972590;28;20042;-79
2023/07/30 01:12:40;;;;;;;15.35;5.00;;;16.80;99.90;;;;;;4966740;28;20498;-79
2023/07/30 01:15:08;;;;;;;12.25;4.43;;;16.80;99.90;;;;;;4967190;28;20042;-79
2023/07/30 01:17:33;;;;;;;13.13;5.20;;;16.70;99.90;;;;;;4978458;28;20054;-79
2023/07/30 01:19:59;;;;;;;10.48;4.57;;;16.70;99.90;;;;;;4980994;28;20068;-79
2023/07/30 01:22:25;;;;;;;10.48;4.35;;;16.70;99.90;;;;;;4978845;28;20046;-79
2023/07/30 01:24:51;;;;;;;14.20;4.43;;;16.70;99.90;;;;;;4974816;28;20043;-79
2023/07/30 01:27:25;;;;;;;13.25;4.22;;;16.60;99.90;;;;;;4967195;28;20042;-79
2023/07/30 01:30:15;;;;;;;10.10;4.43;;;16.60;99.90;;;;;;4981174;28;20508;-79
2023/07/30 01:32:42;;;;;;;9.48;4.32;;;16.60;99.90;;;;;;4979189;28;20042;-79
2023/07/30 01:35:08;;;;;;;8.10;3.97;;;16.60;99.90;;;;;;4962198;28;20443;-79
2023/07/30 01:37:35;;;;;;;9.83;4.00;;;16.60;99.90;;;;;;4968642;28;20050;-79
2023/07/30 01:40:01;;;;;;;13.97;4.50;;;16.50;99.90;;;;;;4984828;28;20042;-79
2023/07/30 01:42:30;;;;;;;8.45;3.72;;;16.50;99.90;;;;;;4962865;28;20145;-79
2023/07/30 01:44:56;;;;;;;10.10;4.15;;;16.50;99.90;;;;;;4968981;28;20035;-79
2023/07/30 01:47:22;;;;;;;11.57;4.15;;;16.50;99.90;;;;;;4997541;28;20111;-78
2023/07/30 01:49:48;;;;;;;11.70;4.10;;;16.50;99.90;;;;;;4980218;28;20054;-79
2023/07/30 01:52:13;;;;;;;12.50;4.20;;;16.40;99.90;;;;;;4981326;28;20057;-81
2023/07/30 01:54:39;;;;;;;10.02;3.58;;;16.40;99.90;;;;;;4972957;28;20138;-78
2023/07/30 01:57:05;;;;;;;11.63;3.83;;;16.40;99.90;;;;;;4962665;28;20069;-79
2023/07/30 01:59:30;;;;;;;10.65;4.35;;;16.40;99.90;;;;;;4972827;28;20057;-79
2023/07/30 02:01:56;;;;;;;10.10;4.07;;;16.40;99.90;;;;;;4985346;28;20049;-79
2023/07/30 02:04:22;;;;;;;8.40;3.90;;;16.30;99.90;;;;;;4971701;28;20551;-78
2023/07/30 02:06:48;;;;;;;11.98;4.30;;;16.30;99.90;;;;;;4977823;28;20103;-79
2023/07/30 02:09:14;;;;;;;12.48;3.78;;;16.30;99.90;;;;;;4963936;28;20069;-79
2023/07/30 02:11:39;;;;;;;11.02;3.97;;;16.30;99.90;;;;;;4969522;28;20482;-79
2023/07/30 02:14:05;;;;;;;12.10;4.20;;;16.30;99.90;;;;;;4987011;28;20069;-79
2023/07/30 02:16:31;;;;;;;13.65;4.25;;;16.30;99.90;;;;;;4981641;28;20039;-79
2023/07/30 02:18:56;;;;;;;13.15;4.10;;;16.30;99.90;;;;;;4969200;28;20100;-79
2023/07/30 02:21:22;;;;;;;11.10;4.05;;;16.20;99.90;;;;;;4979859;28;20038;-78
2023/07/30 02:23:48;;;;;;;10.70;4.10;;;16.20;99.90;;;;;;4982481;28;20074;-79
2023/07/30 02:26:13;;;;;;;10.15;3.95;;;16.20;99.90;;;;;;4982450;28;20393;-79
2023/07/30 02:28:39;;;;;;;9.27;4.00;;;16.20;99.90;;;;;;4983755;28;20137;-79
2023/07/30 02:31:05;;;;;;;14.65;4.57;;;16.20;99.90;;;;;;4965708;28;20505;-79
2023/07/30 02:33:30;;;;;;;16.15;5.00;;;16.20;99.90;;;;;;4985050;28;20098;-79
2023/07/30 02:35:56;;;;;;;11.80;4.47;;;16.20;99.90;;;;;;4983330;28;20553;-78
2023/07/30 02:38:21;;;;;;;10.32;4.07;;;16.10;99.90;;;;;;4956985;28;20093;-79
2023/07/30 02:40:47;;;;;;;8.82;4.25;;;16.10;99.90;;;;;;4960398;28;20062;-79
2023/07/30 02:43:13;;;;;;;12.13;4.28;;;16.10;99.90;;;;;;4959200;28;20040;-79
2023/07/30 02:45:39;;;;;;;10.68;4.88;;;16.10;99.90;;;;;;4985049;28;20054;-79
2023/07/30 02:48:04;;;;;;;9.48;4.47;;;16.00;99.90;;;;;;4977156;28;20446;-79
2023/07/30 02:50:30;;;;;;;12.38;4.22;;;16.00;99.90;;;;;;4982587;28;20046;-79
2023/07/30 02:52:56;;;;;;;11.85;4.00;;;16.00;99.90;;;;;;4973650;28;20045;-79
2023/07/30 02:55:21;;;;;;;12.95;5.10;;;16.00;99.90;;;;;;4962764;28;20178;-79
2023/07/30 02:57:47;;;;;;;11.90;4.97;;;16.00;99.90;;;;;;4965426;28;20398;-79
2023/07/30 03:00:13;;;;;;;8.63;4.15;;;16.00;99.90;;;;;;4961617;28;20104;-79
2023/07/30 03:02:40;;;;;;;10.85;4.22;;;16.00;99.90;;;;;;4970414;28;20077;-78
2023/07/30 03:05:06;;;;;;;11.23;4.65;;;15.90;99.90;;;;;;4966511;28;20114;-79
2023/07/30 03:07:32;;;;;;;9.18;4.32;;;15.90;99.90;;;;;;4959798;28;20482;-78
2023/07/30 03:09:59;;;;;;;11.95;4.30;;;15.90;99.90;;;;;;4970560;28;20050;-78
2023/07/30 03:12:24;;;;;;;10.55;4.47;;;15.90;99.90;;;;;;4965773;28;20042;-78
2023/07/30 03:14:50;;;;;;;11.93;5.03;;;15.90;99.90;;;;;;4973972;28;20059;-78
2023/07/30 03:17:16;;;;;;;11.27;4.40;;;15.80;99.90;;;;;;4963990;28;20092;-79
2023/07/30 03:19:41;;;;;;;13.85;5.10;;;15.80;99.90;;;;;;4961073;28;20940;-79
2023/07/30 03:22:07;;;;;;;9.60;5.07;;;15.80;99.90;;;;;;4970278;28;20042;-78
2023/07/30 03:24:33;;;;;;;13.30;5.57;;;15.80;99.90;;;;;;4969897;28;20150;-78
2023/07/30 03:26:58;;;;;;;12.52;5.05;;;15.80;99.90;;;;;;4980906;28;20819;-79
2023/07/30 03:29:24;;;;;;;9.60;5.03;;;15.80;99.90;;;;;;4984496;28;20050;-79
2023/07/30 03:31:50;;;;;;;10.50;5.10;;;15.80;99.90;;;;;;4982200;28;20042;-79
2023/07/30 03:34:15;;;;;;;10.65;5.40;;;15.70;99.90;;;;;;4978971;28;20071;-78
2023/07/30 03:36:41;;;;;;;12.30;5.25;;;15.80;99.90;;;;;;4971941;28;20045;-79
2023/07/30 03:39:07;;;;;;;12.63;5.10;;;15.70;99.90;;;;;;4973910;28;20042;-79
2023/07/30 03:41:32;;;;;;;12.73;5.30;;;15.80;99.90;;;;;;4980589;28;20049;-79
2023/07/30 03:43:58;;;;;;;12.75;6.10;;;15.70;99.90;;;;;;4987184;28;20046;-78
2023/07/30 03:46:24;;;;;;;12.95;5.72;;;15.70;99.90;;;;;;4957640;28;20552;-79
2023/07/30 03:48:49;;;;;;;11.27;5.63;;;15.70;99.90;;;;;;4983740;28;20078;-78
2023/07/30 03:51:15;;;;;;;11.27;5.35;;;15.70;99.90;;;;;;4988689;28;20133;-79
2023/07/30 03:53:42;;;;;;;13.25;5.45;;;15.70;99.90;;;;;;4987554;28;20093;-79
2023/07/30 03:56:08;;;;;;;11.13;5.30;;;15.70;99.90;;;;;;4966027;28;20050;-78
2023/07/30 03:58:34;;;;;;;9.77;5.10;;;15.70;99.90;;;;;;4985960;28;20074;-79
2023/07/30 04:00:59;;;;;;;11.70;5.53;;;15.70;99.90;;;;;;4974080;28;20050;-78
2023/07/30 04:03:25;;;;;;;12.90;5.30;;;15.70;99.90;;;;;;4974894;28;20098;-79
2023/07/30 04:05:51;;;;;;;13.45;5.20;;;15.70;99.90;;;;;;4965486;28;20042;-78
2023/07/30 04:08:16;;;;;;;11.52;5.43;;;15.70;99.90;;;;;;4977579;28;20116;-78
2023/07/30 04:10:42;;;;;;;12.20;5.32;;;15.70;99.90;;;;;;4982732;28;20038;-79
2023/07/30 04:13:08;;;;;;;10.32;5.32;;;15.70;99.90;;;;;;4986904;28;20050;-79
2023/07/30 04:15:34;;;;;;;10.13;5.25;;;15.70;99.90;;;;;;4979884;28;20133;-79
2023/07/30 04:17:59;;;;;;;15.02;5.25;;;15.70;99.90;;;;;;4981610;28;20050;-79
2023/07/30 04:20:25;;;;;;;11.85;5.53;;;15.60;99.90;;;;;;4968133;28;20049;-79
2023/07/30 04:22:51;;;;;;;12.10;5.03;;;15.70;99.90;;;;;;4980363;28;20137;-79
2023/07/30 04:25:18;;;;;;;13.05;5.38;;;15.70;99.90;;;;;;4981432;28;20038;-79
2023/07/30 04:27:43;;;;;;;14.50;5.50;;;15.70;99.90;;;;;;4970147;28;20536;-79
2023/07/30 04:30:10;;;;;;;11.50;5.20;;;15.60;99.90;;;;;;4972953;28;20057;-79
2023/07/30 04:32:35;;;;;;;10.95;4.97;;;15.70;99.90;;;;;;4970437;28;20058;-79
2023/07/30 04:35:02;;;;;;;14.00;5.32;;;15.70;99.90;;;;;;4957530;28;20379;-79
2023/07/30 04:37:28;;;;;;;10.57;5.03;;;15.70;99.90;;;;;;4965509;28;20054;-79
2023/07/30 04:39:54;;;;;;;13.45;5.45;;;15.70;99.90;;;;;;4978036;28;20041;-79
2023/07/30 04:42:20;;;;;;;13.25;5.15;;;15.70;99.90;;;;;;4976428;28;20603;-79
2023/07/30 04:44:46;;;;;;;13.00;5.35;;;15.80;99.90;;;;;;4967848;28;20046;-79
2023/07/30 04:47:11;;;;;;;12.10;5.10;;;15.80;99.90;;;;;;4988078;28;20500;-79
2023/07/30 04:49:40;;;;;;;10.32;4.85;;;15.80;99.90;;;;;;4978791;28;20054;-78
2023/07/30 04:52:07;;;;;;;11.60;5.40;;;15.80;99.90;;;;;;4982233;28;20361;-79
2023/07/30 04:54:32;;;;;;;13.73;5.25;;;15.80;99.90;;;;;;4984424;28;20042;-79
2023/07/30 04:56:58;;;;;;;14.98;5.30;;;15.90;99.90;;;;;;4975018;28;20126;-79
2023/07/30 04:59:23;;;;;;;12.95;5.13;;;15.90;99.90;;;;;;4972308;28;20056;-79
2023/07/30 05:01:49;;;;;;;13.13;5.50;;;16.00;99.90;;;;;;4966426;28;20117;-78
2023/07/30 05:04:15;;;;;;;18.25;5.90;;;16.00;99.90;;;;;;4981432;28;20054;-79
2023/07/30 05:06:40;;;;;;;11.48;5.20;;;16.00;99.90;;;;;;4979437;28;20045;-79
2023/07/30 05:09:06;;;;;;;13.02;4.60;;;16.00;99.90;;;;;;4964591;28;20050;-78
2023/07/30 05:11:32;;;;;;;12.50;4.97;;;16.10;99.90;;;;;;4983343;28;20069;-79
2023/07/30 05:13:57;;;;;;;11.35;4.93;;;16.20;99.90;;;;;;4975817;28;20035;-77
2023/07/30 05:16:23;;;;;;;13.85;5.15;;;16.20;99.90;;;;;;4980693;28;20046;-78
2023/07/30 05:18:49;;;;;;;13.65;5.20;;;16.30;99.90;;;;;;4965663;28;20061;-79
2023/07/30 05:21:14;;;;;;;13.57;5.90;;;16.30;99.90;;;;;;4976018;28;20050;-75
2023/07/30 05:23:40;;;;;;;17.13;5.22;;;16.30;99.90;;;;;;4981691;28;20057;-81
2023/07/30 05:26:06;;;;;;;13.43;5.45;;;16.40;99.90;;;;;;4970362;28;20035;-74
2023/07/30 05:28:32;;;;;;;11.98;5.40;;;16.40;99.90;;;;;;4986269;28;20137;-76
2023/07/30 05:30:58;;;;;;;16.23;6.03;;;16.40;99.90;;;;;;4977425;28;20092;-83
2023/07/30 05:33:24;;;;;;;16.85;5.93;;;16.50;99.90;;;;;;4983341;28;20038;-82
2023/07/30 05:35:50;;;;;;;17.05;5.65;;;16.40;99.90;;;;;;4983071;28;20093;-79
2023/07/30 05:38:15;;;;;;;16.25;6.00;;;16.50;99.90;;;;;;4953935;28;20057;-78
2023/07/30 05:40:42;;;;;;;15.20;5.93;;;16.50;99.90;;;;;;4981449;28;20043;-83
2023/07/30 05:43:07;;;;;;;17.23;5.95;;;16.50;99.90;;;;;;4990827;28;20049;-80
2023/07/30 05:45:35;;;;;;;17.80;6.28;;;16.50;99.90;;;;;;4972433;28;20046;-79
2023/07/30 05:48:00;;;;;;;16.50;5.97;;;16.50;99.90;;;;;;4970156;28;20562;-80
2023/07/30 05:50:26;;;;;;;17.92;6.07;;;16.50;99.90;;;;;;4965170;28;20058;-76
2023/07/30 05:52:52;;;;;;;20.13;6.45;;;16.60;99.90;;;;;;4982318;28;20046;-81
2023/07/30 05:55:18;;;;;;;16.52;6.40;;;16.60;99.90;;;;;;4960253;28;20125;-81
2023/07/30 05:57:43;;;;;;;15.93;6.75;;;16.60;99.90;;;;;;4976182;28;20069;-77
2023/07/30 06:00:09;;;;;;;15.15;6.10;;;16.60;99.90;;;;;;4958774;28;20457;-82
2023/07/30 06:02:35;;;;;;;16.48;6.40;;;16.70;99.90;;;;;;4967998;28;20078;-82
2023/07/30 06:05:01;;;;;;;15.88;6.53;;;16.70;99.90;;;;;;4980084;28;20081;-71
2023/07/30 06:07:26;;;;;;;17.63;6.30;;;16.70;99.90;;;;;;4979350;28;20558;-77
2023/07/30 06:09:52;;;;;;;20.63;6.38;;;16.80;99.90;;;;;;4965710;28;20129;-77
2023/07/30 06:12:18;;;;;;;18.05;7.25;;;16.80;99.90;;;;;;4966718;28;20046;-78
2023/07/30 06:14:43;;;;;;;18.90;6.80;;;16.90;99.90;;;;;;4952573;28;20402;-78
2023/07/30 06:17:09;;;;;;;16.17;6.80;;;16.90;99.90;;;;;;4972492;28;20061;-77
2023/07/30 06:19:35;;;;;;;17.60;6.20;;;16.90;99.90;;;;;;4975098;28;20085;-82
2023/07/30 06:22:00;;;;;;;17.25;6.72;;;16.90;99.90;;;;;;4971170;28;20038;-80
2023/07/30 06:24:26;;;;;;;15.90;7.40;;;17.00;99.90;;;;;;4967096;28;20125;-74
2023/07/30 06:26:52;;;;;;;17.98;6.75;;;17.00;99.90;;;;;;4986896;28;20050;-81
2023/07/30 06:29:17;;;;;;;24.80;7.97;;;17.00;99.90;;;;;;4987853;28;20043;-83
2023/07/30 06:31:43;;;;;;;19.48;7.32;;;17.10;99.90;;;;;;4978910;28;20042;-74
2023/07/30 06:34:09;;;;;;;20.08;7.20;;;17.10;99.90;;;;;;4976573;28;20105;-77
2023/07/30 06:36:35;;;;;;;18.00;7.15;;;17.20;99.90;;;;;;4960699;28;20058;-75
2023/07/30 06:39:01;;;;;;;20.55;7.70;;;17.20;99.90;;;;;;4982011;28;20038;-75
2023/07/30 06:41:26;;;;;;;23.60;7.50;;;17.20;99.90;;;;;;4956020;28;20141;-76
2023/07/30 06:43:52;;;;;;;20.58;8.70;;;17.30;99.90;;;;;;4983102;28;20062;-76
2023/07/30 06:46:18;;;;;;;22.83;8.40;;;17.30;99.90;;;;;;4968899;28;20442;-75
2023/07/30 06:48:43;;;;;;;19.35;8.15;;;17.40;99.90;;;;;;4960556;28;20785;-75
2023/07/30 06:51:10;;;;;;;19.88;8.15;;;17.50;99.90;;;;;;4978587;28;20053;-74
2023/07/30 06:53:35;;;;;;;19.20;7.68;;;17.50;99.90;;;;;;4960334;28;20081;-74
2023/07/30 06:56:01;;;;;;;20.90;8.05;;;17.60;99.90;;;;;;4964129;28;20069;-74
2023/07/30 06:58:27;;;;;;;17.88;7.65;;;17.70;99.90;;;;;;4977954;28;20062;-74
2023/07/30 07:00:52;;;;;;;26.85;8.57;;;17.70;99.90;;;;;;4979490;28;20035;-74
2023/07/30 07:03:18;;;;;;;21.70;7.75;;;17.70;99.90;;;;;;4985563;28;20038;-74
2023/07/30 07:05:44;;;;;;;25.08;8.38;;;17.70;99.90;;;;;;4984962;28;20555;-74
2023/07/30 07:08:10;;;;;;;19.63;7.95;;;17.80;99.90;;;;;;4989434;28;20524;-74
2023/07/30 07:10:36;;;;;;;18.48;7.82;;;17.90;99.90;;;;;;4986422;28;20105;-75
2023/07/30 07:13:01;;;;;;;21.52;8.63;;;17.90;99.90;;;;;;4991579;28;20643;-75
2023/07/30 07:15:28;;;;;;;21.83;8.90;;;18.00;99.90;;;;;;4985629;28;20042;-75
2023/07/30 07:17:54;;;;;;;22.23;8.40;;;18.00;99.90;;;;;;4986555;28;20046;-75
2023/07/30 07:20:19;;;;;;;21.10;7.95;;;18.00;99.90;;;;;;4973065;28;20489;-75
2023/07/30 07:22:45;;;;;;;20.38;8.32;;;18.10;99.90;;;;;;4954249;28;20870;-76
2023/07/30 07:25:11;;;;;;;22.00;8.68;;;18.10;99.90;;;;;;4991864;28;20486;-76
2023/07/30 07:27:37;;;;;;;18.88;8.60;;;18.10;99.90;;;;;;4972837;28;20530;-76
2023/07/30 07:30:03;;;;;;;22.55;8.68;;;18.20;99.90;;;;;;4983318;28;20046;-75
2023/07/30 07:32:28;;;;;;;20.45;7.60;;;18.30;99.90;;;;;;4989078;28;20042;-76
2023/07/30 07:34:54;;;;;;;15.50;7.13;;;18.30;99.90;;;;;;4987364;28;20113;-76
2023/07/30 07:37:20;;;;;;;19.88;8.02;;;18.40;99.90;;;;;;4974999;28;20050;-75
2023/07/30 07:39:46;;;;;;;21.35;8.10;;;18.40;99.90;;;;;;4984867;28;20038;-75
2023/07/30 07:42:11;;;;;;;20.02;7.28;;;18.50;99.90;;;;;;4990351;28;20049;-76
2023/07/30 07:44:38;;;;;;;19.95;7.63;;;18.50;99.90;;;;;;4969921;28;20046;-75
2023/07/30 07:47:04;;;;;;;19.17;7.82;;;18.50;99.90;;;;;;4968044;28;20078;-75
2023/07/30 07:49:30;;;;;;;20.05;8.25;;;18.50;99.90;;;;;;4985801;28;20083;-75
2023/07/30 07:51:55;;;;;;;15.95;7.80;;;18.50;99.90;;;;;;4981934;28;20074;-75
2023/07/30 07:54:21;;;;;;;18.35;7.50;;;18.50;99.90;;;;;;4966690;28;20541;-76
2023/07/30 07:56:47;;;;;;;24.30;8.50;;;18.50;99.90;;;;;;4973900;28;20049;-76
2023/07/30 07:59:13;;;;;;;18.58;8.27;;;18.50;99.90;;;;;;4974405;28;20058;-76
2023/07/30 08:01:38;;;;;;;22.35;8.77;;;18.40;99.90;;;;;;4970271;28;20144;-81
2023/07/30 08:04:04;;;;;;;20.15;7.68;;;18.40;99.90;;;;;;4988263;28;20050;-79
2023/07/30 08:06:32;;;;;;;22.50;8.38;;;18.40;99.90;;;;;;4989560;28;20409;-80
2023/07/30 08:08:58;;;;;;;19.38;7.68;;;18.40;99.90;;;;;;4987333;28;20056;-80
2023/07/30 08:11:23;;;;;;;18.90;7.53;;;18.50;99.90;;;;;;4982296;28;20046;-81
2023/07/30 08:13:49;;;;;;;25.50;8.43;;;18.50;99.90;;;;;;4972236;28;20108;-75
2023/07/30 08:16:15;;;;;;;20.10;7.80;;;18.60;99.90;;;;;;4974302;28;20050;-78
2023/07/30 08:18:40;;;;;;;22.23;8.05;;;18.70;99.90;;;;;;4984433;28;20048;-77
2023/07/30 08:21:06;;;;;;;20.50;8.30;;;18.80;99.90;;;;;;4979571;28;20474;-76
2023/07/30 08:23:32;;;;;;;19.85;7.78;;;18.90;99.90;;;;;;4982887;28;20078;-76
2023/07/30 08:25:57;;;;;;;19.85;8.07;;;19.00;99.90;;;;;;4970236;28;20136;-77
2023/07/30 08:28:23;;;;;;;21.77;8.65;;;19.10;99.90;;;;;;4985049;28;20042;-76
2023/07/30 08:30:49;;;;;;;23.33;7.80;;;19.20;99.90;;;;;;4981914;28;20485;-73
2023/07/30 08:33:14;;;;;;;22.75;7.72;;;19.20;99.90;;;;;;4959557;28;20034;-76
2023/07/30 08:35:40;;;;;;;21.60;7.55;;;19.20;99.90;;;;;;4981391;28;20105;-78
2023/07/30 08:38:06;;;;;;;21.90;6.70;;;19.20;99.90;;;;;;4971200;28;20125;-77
2023/07/30 08:40:32;;;;;;;18.50;6.22;;;19.30;99.90;;;;;;4953720;28;20482;-77
2023/07/30 08:42:58;;;;;;;23.25;6.47;;;19.30;99.90;;;;;;4954564;28;20089;-76
2023/07/30 08:45:23;;;;;;;23.48;6.68;;;19.40;99.90;;;;;;4981920;28;20126;-77
2023/07/30 08:47:49;;;;;;;17.60;5.70;;;19.50;99.90;;;;;;4973242;28;20047;-77
2023/07/30 08:50:15;;;;;;;14.60;4.60;;;19.50;99.90;;;;;;4982953;28;20070;-78
2023/07/30 08:52:42;;;;;;;15.68;5.40;;;19.50;99.90;;;;;;4967017;28;20046;-80
2023/07/30 08:55:10;;;;;;;15.60;5.18;;;19.50;99.90;;;;;;4965310;28;20052;-77
2023/07/30 08:57:37;;;;;;;18.75;5.95;;;19.50;99.90;;;;;;4972351;28;20133;-79
2023/07/30 09:00:08;;;;;;;15.98;5.70;;;19.70;99.90;;;;;;4974499;28;20129;-79
2023/07/30 09:02:50;;;;;;;16.13;5.55;;;19.80;99.90;;;;;;4961575;28;20509;-76
2023/07/30 09:05:16;;;;;;;18.80;5.90;;;19.80;99.90;;;;;;4979818;28;20039;-80
2023/07/30 09:07:42;;;;;;;16.70;5.60;;;19.90;99.90;;;;;;4978196;28;20051;-77
2023/07/30 09:10:08;;;;;;;14.57;5.50;;;19.90;99.90;;;;;;4976633;28;20042;-77
2023/07/30 09:12:35;;;;;;;15.15;5.70;;;19.90;99.90;;;;;;4983788;28;20053;-76
2023/07/30 09:15:05;;;;;;;19.35;6.35;;;20.00;99.90;;;;;;4981003;28;20038;-79
2023/07/30 09:17:32;;;;;;;15.07;5.97;;;20.10;99.90;;;;;;4984665;28;20058;-76
2023/07/30 09:20:05;;;;;;;17.00;5.78;;;20.10;99.90;;;;;;4971738;28;20050;-75
2023/07/30 09:22:40;;;;;;;16.92;5.82;;;20.20;99.90;;;;;;4978133;28;20043;-75
2023/07/30 09:25:06;;;;;;;11.77;4.70;;;20.20;99.90;;;;;;4981859;28;20054;-76
2023/07/30 09:27:32;;;;;;;14.77;5.53;;;20.20;99.90;;;;;;4981260;28;20518;-74
2023/07/30 09:30:06;;;;;;;15.32;5.25;;;20.20;99.90;;;;;;4976483;28;20303;-77
2023/07/30 09:32:33;;;;;;;14.23;5.32;;;20.20;99.90;;;;;;4984165;28;20092;-75
2023/07/30 09:35:06;;;;;;;;;;;20.20;99.90;;;;;;4982649;28;20113;-79
2023/07/30 09:37:35;;;;;;;14.48;5.32;;;20.20;99.90;;;;;;4985883;28;20020;-78
2023/07/30 09:40:02;;;;;;;14.95;5.20;;;20.30;99.90;;;;;;4982422;28;20038;-77
2023/07/30 09:42:28;;;;;;;13.25;5.28;;;20.40;99.90;;;;;;4983348;28;20051;-80
2023/07/30 09:44:58;;;;;;;12.98;5.03;;;20.50;99.90;;;;;;4984664;28;20034;-77
2023/07/30 09:47:26;;;;;;;11.85;4.43;;;20.50;99.90;;;;;;4964292;28;20050;-75
2023/07/30 09:49:53;;;;;;;15.25;4.20;;;20.50;99.90;;;;;;4975472;28;20058;-74
2023/07/30 09:52:21;;;;;;;13.38;4.43;;;20.50;99.90;;;;;;4970495;28;20729;-77
2023/07/30 09:54:49;;;;;;;11.40;3.85;;;20.40;99.90;;;;;;4976584;28;20061;-77
2023/07/30 09:57:15;;;;;;;11.15;4.10;;;20.20;99.90;;;;;;4973886;28;20054;-74
2023/07/30 09:59:41;;;;;;;13.10;4.88;;;20.10;99.90;;;;;;4968519;28;20057;-77
2023/07/30 10:02:10;;;;;;;10.57;4.90;;;19.90;99.90;;;;;;4958510;28;20145;-78
2023/07/30 10:04:42;;;;;;;13.57;4.90;;;19.80;99.90;;;;;;4969311;28;20844;-77
2023/07/30 10:07:14;;;;;;;12.40;4.68;;;19.70;99.90;;;;;;4970774;28;20057;-76
2023/07/30 10:09:44;;;;;;;15.35;5.05;;;19.70;99.90;;;;;;4983523;28;20512;-79
2023/07/30 10:12:15;;;;;;;16.33;5.95;;;19.70;99.90;;;;;;4975143;28;20101;-77
2023/07/30 10:14:42;;;;;;;15.65;5.50;;;19.80;99.90;;;;;;4974055;28;20046;-74
2023/07/30 10:17:11;;;;;;;13.52;5.18;;;19.80;99.90;;;;;;4977810;28;20054;-77
2023/07/30 10:19:37;;;;;;;15.25;4.78;;;19.80;99.90;;;;;;4964803;28;20116;-76
2023/07/30 10:22:17;;;;;;;18.73;4.28;;;19.70;99.90;;;;;;4959482;28;20039;-73
2023/07/30 10:25:16;;;;;;;12.27;4.00;;;19.70;99.90;;;;;;4974279;28;20034;-76
2023/07/30 10:27:49;;;;;;;15.65;4.43;;;19.70;99.90;;;;;;4942953;28;20054;-85
2023/07/30 10:30:16;;;;;;;12.02;3.65;;;19.70;99.90;;;;;;4974225;28;20116;-84
2023/07/30 10:33:04;;;;;;;10.68;3.30;;;19.90;99.90;;;;;;4983602;28;20049;-85
2023/07/30 10:35:47;;;;;;;13.98;3.53;;;20.00;99.90;;;;;;4976153;28;20168;-82
2023/07/30 10:38:13;;;;;;;9.95;2.80;;;20.20;99.90;;;;;;4942486;28;20054;-80
2023/07/30 10:40:39;;;;;;;10.98;2.90;;;20.50;99.90;;;;;;4982413;28;20045;-80
2023/07/30 10:43:17;;;;;;;12.15;3.00;;;20.70;99.90;;;;;;4962192;28;20877;-79
2023/07/30 10:45:50;;;;;;;10.02;2.75;;;20.90;99.90;;;;;;4956851;28;20050;-77
2023/07/30 10:48:17;;;;;;;9.15;2.80;;;21.10;99.90;;;;;;4971954;28;20123;-83
2023/07/30 10:50:48;;;;;;;12.50;3.10;;;21.20;99.90;;;;;;4979583;28;20038;-87
2023/07/30 10:53:18;;;;;;;9.23;2.65;;;21.30;99.90;;;;;;4983449;28;20057;-87
2023/07/30 10:55:45;;;;;;;13.20;3.15;;;21.40;99.90;;;;;;4982374;28;20446;-87
2023/07/30 10:58:11;;;;;;;7.35;2.63;;;21.50;99.90;;;;;;4987431;28;20173;-87
2023/07/30 11:00:38;;;;;;;9.35;2.90;;;21.60;99.90;;;;;;5001174;28;20050;-86
2023/07/30 11:03:03;;;;;;;9.80;3.20;;;21.70;99.90;;;;;;4984476;28;20138;-84
2023/07/30 11:05:30;;;;;;;7.55;2.65;;;21.80;99.90;;;;;;4976490;28;20054;-86
2023/07/30 11:07:56;;;;;;;8.88;2.30;;;21.90;99.90;;;;;;4965284;28;20089;-85
2023/07/30 11:10:22;;;;;;;10.05;2.53;;;21.90;99.90;;;;;;4954354;28;20706;-87
2023/07/30 11:12:49;;;;;;;10.25;2.90;;;21.90;99.90;;;;;;4983513;28;20046;-85
2023/07/30 11:15:15;;;;;;;7.13;2.20;;;21.80;99.90;;;;;;4975393;28;20084;-85
2023/07/30 11:17:42;;;;;;;12.02;2.10;;;21.60;99.90;;;;;;4982660;28;20035;-83
2023/07/30 11:20:08;;;;;;;8.85;2.53;;;21.50;99.90;;;;;;4973311;28;20038;-84
2023/07/30 11:22:35;;;;;;;8.17;2.10;;;21.30;99.90;;;;;;4970665;28;20061;-84
2023/07/30 11:25:05;;;;;;;9.55;2.05;;;21.20;99.90;;;;;;4985223;28;20109;-85
2023/07/30 11:27:45;;;;;;;13.38;2.22;;;21.30;99.90;;;;;;4975029;28;20073;-85
2023/07/30 11:30:10;;;;;;;7.22;2.10;;;21.40;99.90;;;;;;4969968;28;20051;-85
2023/07/30 11:32:36;;;;;;;5.38;1.98;;;21.50;99.90;;;;;;4972670;28;20678;-86
2023/07/30 11:35:02;;;;;;;6.60;2.20;;;21.60;99.90;;;;;;4977085;28;20074;-87
2023/07/30 11:37:28;;;;;;;7.50;2.03;;;21.70;99.90;;;;;;4979575;28;21892;-82
2023/07/30 11:39:54;;;;;;;9.98;2.70;;;21.80;99.90;;;;;;4971019;28;20046;-83
2023/07/30 11:42:20;;;;;;;7.78;2.15;;;21.90;99.90;;;;;;4978269;28;20069;-85
2023/07/30 11:44:46;;;;;;;7.55;1.70;;;21.90;99.90;;;;;;4984834;28;20089;-86
2023/07/30 11:47:22;;;;;;;8.60;1.90;;;21.90;99.90;;;;;;4975150;28;20082;-83
2023/07/30 11:49:57;;;;;;;10.80;2.40;;;21.90;99.90;;;;;;4983447;28;20058;-89
2023/07/30 11:52:23;;;;;;;8.90;2.20;;;21.80;99.90;;;;;;4973869;28;20043;-76
2023/07/30 11:55:02;;;;;;;7.70;2.00;;;21.80;99.90;;;;;;4968727;28;20061;-91
2023/07/30 11:57:35;;;;;;;7.43;1.95;;;21.90;99.90;;;;;;4979722;28;20101;-83
2023/07/30 12:00:01;;;;;;;8.95;2.50;;;22.10;99.90;;;;;;4988319;28;20059;-80
2023/07/30 12:02:27;;;;;;;7.43;2.00;;;22.20;99.90;;;;;;4958554;28;20050;-77
2023/07/30 12:04:53;;;;;;;8.48;2.65;;;22.40;99.90;;;;;;4980305;28;20234;-80
2023/07/30 12:07:25;;;;;;;6.20;2.00;;;22.50;99.90;;;;;;4971673;28;20117;-82
2023/07/30 12:09:51;;;;;;;6.68;2.05;;;22.40;99.90;;;;;;4972502;28;20146;-79
2023/07/30 12:12:16;;;;;;;7.70;2.63;;;22.30;99.90;;;;;;4970069;28;20100;-83
2023/07/30 12:14:54;;;;;;;8.57;1.90;;;22.30;99.90;;;;;;4981256;28;20095;-77
2023/07/30 12:17:19;;;;;;;7.50;2.00;;;22.40;99.90;;;;;;4982711;28;20633;-82
2023/07/30 12:19:45;;;;;;;10.80;2.28;;;22.40;99.90;;;;;;4970559;28;20042;-84
2023/07/30 12:22:11;;;;;;;9.18;2.20;;;22.50;99.90;;;;;;4977340;28;20590;-83
2023/07/30 12:24:36;;;;;;;10.68;2.03;;;22.50;99.90;;;;;;4963090;28;20163;-83
2023/07/30 12:27:02;;;;;;;9.63;2.60;;;22.50;99.90;;;;;;4970177;28;20057;-82
2023/07/30 12:29:28;;;;;;;10.18;2.95;;;22.60;99.90;;;;;;4991265;28;20042;-85
2023/07/30 12:31:55;;;;;;;9.55;2.13;;;22.60;99.90;;;;;;4966699;28;20493;-92
2023/07/30 12:34:22;;;;;;;;;;;22.70;99.90;;;;;;4988202;28;20098;-82
2023/07/30 12:36:47;;;;;;;;;;;22.70;99.90;;;;;;4984349;28;20380;-83
2023/07/30 12:39:13;;;;;;;10.70;1.93;;;22.50;99.90;;;;;;4981682;28;19929;-87